Terminal Aerodrome Forecast
Issued by NWS

Home | Current Version | Previous Version | Text Only | Print | Product List | Glossary On
Versions: 1 2 3 4 5 6 7 8 9 10 11 12 13 14
000
FTUS45 KVEF 012300
TAFVGT
TAF
KVGT 012333Z 0200/0224 14007KT P6SM -RA BKN040 OVC060
     FM020600 11007KT P6SM -RA BKN050 OVC070
      TEMPO 0208/0210 5SM RA BR OVC040
     FM021000 VRB05KT 5SM -RA BKN030 OVC050
      TEMPO 0210/0214 4SM RA BR BKN020 OVC030
     FM021500 28006KT P6SM SCT030 OVC050=

USA.gov is the U.S. government's official web portal to all federal, state and local government web resources and services.